Time;durP1;ratioP1;P1;durP2;ratioP2;P2;SDS_P1;SDS_P2;PMS_P1;PMS_P2;Temp;Humidity;BMP_temperature;BMP_pressure;BME280_temperature;BME280_humidity;BME280_pressure;Samples;Min_cycle;Max_cycle;Signal;HPM_P1;HPM_P2
2024/01/26 00:00:05;;;;;;;1.33;1.30;;;;;;;9.85;100.00;97817.72;5111647;28;20229;-56
2024/01/26 00:02:32;;;;;;;1.93;1.50;;;;;;;9.83;100.00;97817.00;5111322;28;20211;-57
2024/01/26 00:04:58;;;;;;;4.00;1.70;;;;;;;9.77;100.00;97801.59;5112151;28;20296;-56
2024/01/26 00:07:26;;;;;;;1.60;1.50;;;;;;;9.80;100.00;97803.19;5111979;28;20240;-57
2024/01/26 00:09:52;;;;;;;2.23;1.77;;;;;;;9.78;100.00;97795.34;5111217;27;20189;-58
2024/01/26 00:12:19;;;;;;;3.40;1.80;;;;;;;9.79;100.00;97810.25;5112081;28;20219;-56
2024/01/26 00:14:46;;;;;;;2.90;1.90;;;;;;;9.77;100.00;97820.09;5111541;28;20533;-58
2024/01/26 00:17:12;;;;;;;1.73;1.63;;;;;;;9.73;100.00;97817.78;5111101;28;20534;-57
2024/01/26 00:19:39;;;;;;;1.60;1.50;;;;;;;9.74;100.00;97812.38;5112036;28;20215;-58
2024/01/26 00:22:06;;;;;;;1.30;1.30;;;;;;;9.72;100.00;97816.09;5111557;28;20300;-57
2024/01/26 00:24:34;;;;;;;1.70;1.57;;;;;;;9.76;100.00;97817.56;5111579;28;20202;-58
2024/01/26 00:27:01;;;;;;;1.87;1.50;;;;;;;9.73;100.00;97823.91;5111845;28;20201;-58
2024/01/26 00:29:27;;;;;;;1.80;1.70;;;;;;;9.71;100.00;97815.22;5113067;28;20264;-57
2024/01/26 00:31:54;;;;;;;2.07;1.97;;;;;;;9.72;100.00;97811.66;5113965;28;20292;-58
2024/01/26 00:34:20;;;;;;;3.13;1.90;;;;;;;9.72;100.00;97819.56;5116380;28;20332;-57
2024/01/26 00:36:47;;;;;;;2.07;1.70;;;;;;;9.72;100.00;97821.38;5112373;28;20280;-56
2024/01/26 00:39:13;;;;;;;3.20;1.73;;;;;;;9.74;100.00;97816.84;5111455;28;20199;-57
2024/01/26 00:41:41;;;;;;;2.27;1.90;;;;;;;9.71;100.00;97822.31;5111227;28;20285;-56
2024/01/26 00:44:08;;;;;;;2.10;1.90;;;;;;;9.70;100.00;97826.78;5111908;28;20206;-58
2024/01/26 00:46:37;;;;;;;2.43;1.90;;;;;;;9.72;100.00;97832.78;5111241;28;20205;-56
2024/01/26 00:49:04;;;;;;;2.00;1.90;;;;;;;9.76;100.00;97821.03;5111850;28;20284;-57
2024/01/26 00:51:30;;;;;;;2.93;2.30;;;;;;;9.77;100.00;97820.09;5111115;28;20197;-57
2024/01/26 00:53:57;;;;;;;2.30;2.20;;;;;;;9.83;100.00;97827.56;5111711;28;20207;-57
2024/01/26 00:56:23;;;;;;;2.70;1.80;;;;;;;9.83;100.00;97827.56;5111475;28;20197;-58
2024/01/26 00:58:52;;;;;;;2.03;1.93;;;;;;;9.82;100.00;97819.75;5111319;28;20219;-58
2024/01/26 01:01:19;;;;;;;1.97;1.70;;;;;;;9.86;100.00;97822.06;5110558;28;20225;-56
2024/01/26 01:03:46;;;;;;;1.73;1.63;;;;;;;9.92;100.00;97833.97;5110866;28;20618;-57
2024/01/26 01:06:12;;;;;;;1.90;1.80;;;;;;;9.86;100.00;97832.63;5111014;28;20205;-56
2024/01/26 01:08:39;;;;;;;2.60;1.70;;;;;;;9.91;100.00;97835.81;5110793;28;20542;-57
2024/01/26 01:11:06;;;;;;;1.97;1.60;;;;;;;9.95;100.00;97833.78;5110531;28;20657;-57
2024/01/26 01:13:33;;;;;;;1.57;1.47;;;;;;;9.97;100.00;97829.22;5110507;28;20229;-57
2024/01/26 01:16:01;;;;;;;1.37;1.30;;;;;;;9.97;100.00;97829.22;5110578;28;20205;-56
2024/01/26 01:18:28;;;;;;;3.50;1.70;;;;;;;9.98;100.00;97841.50;5110864;28;20205;-56
2024/01/26 01:20:55;;;;;;;2.27;1.70;;;;;;;9.85;100.00;97830.09;5110151;28;20636;-57
2024/01/26 01:23:21;;;;;;;1.67;1.20;;;;;;;9.86;100.00;97830.00;5111026;28;20233;-55
2024/01/26 01:25:48;;;;;;;1.63;1.53;;;;;;;9.87;100.00;97833.50;5110862;28;20791;-56
2024/01/26 01:28:14;;;;;;;1.30;1.20;;;;;;;9.85;100.00;97840.66;5110395;28;20551;-57
2024/01/26 01:30:41;;;;;;;1.27;1.17;;;;;;;9.81;100.00;97850.59;5109847;28;20201;-55
2024/01/26 01:33:09;;;;;;;1.30;1.20;;;;;;;9.85;100.00;97848.59;5111112;28;20197;-58
2024/01/26 01:35:35;;;;;;;0.93;0.87;;;;;;;9.83;100.00;97835.50;5110515;28;20197;-56
2024/01/26 01:38:02;;;;;;;1.63;1.20;;;;;;;9.79;100.00;97830.53;5114693;28;20718;-56
2024/01/26 01:40:29;;;;;;;0.97;0.97;;;;;;;9.73;100.00;97839.75;5114618;28;20239;-57
2024/01/26 01:42:55;;;;;;;1.17;1.07;;;;;;;9.69;100.00;97840.94;5114212;28;20201;-57
2024/01/26 01:45:23;;;;;;;0.83;0.83;;;;;;;9.64;100.00;97850.94;5114077;28;20288;-56
2024/01/26 01:47:49;;;;;;;0.87;0.87;;;;;;;9.63;100.00;97846.66;5114390;28;20296;-56
2024/01/26 01:50:17;;;;;;;1.37;0.80;;;;;;;9.58;100.00;97838.19;5114436;28;20211;-56
2024/01/26 01:52:45;;;;;;;2.60;0.90;;;;;;;9.57;100.00;97843.56;5114286;28;20298;-57
2024/01/26 01:55:15;;;;;;;0.80;0.80;;;;;;;9.52;100.00;97833.34;5114445;28;20232;-57
2024/01/26 01:57:44;;;;;;;0.87;0.87;;;;;;;9.47;100.00;97832.81;5114062;27;20258;-57
2024/01/26 02:00:15;;;;;;;1.37;0.80;;;;;;;9.50;100.00;97829.94;5113838;28;20228;-57
2024/01/26 02:02:44;;;;;;;3.37;1.13;;;;;;;9.43;100.00;97828.69;5113344;28;20201;-57
2024/01/26 02:05:10;;;;;;;1.17;0.83;;;;;;;9.38;100.00;97836.09;5114036;28;20213;-56
2024/01/26 02:07:38;;;;;;;1.70;1.07;;;;;;;9.44;100.00;97841.78;5113412;28;20823;-56
2024/01/26 02:10:08;;;;;;;0.63;0.63;;;;;;;9.43;100.00;97842.75;5114041;28;20208;-56
2024/01/26 02:12:34;;;;;;;1.93;0.80;;;;;;;9.40;100.00;97842.09;5113866;28;20221;-57
2024/01/26 02:15:02;;;;;;;1.43;0.67;;;;;;;9.37;100.00;97845.81;5114102;28;20197;-56
2024/01/26 02:17:31;;;;;;;0.70;0.70;;;;;;;9.38;100.00;97844.03;5113378;28;20201;-57
2024/01/26 02:19:57;;;;;;;2.13;1.20;;;;;;;9.32;100.00;97844.44;5113625;28;20197;-57
2024/01/26 02:22:24;;;;;;;0.60;0.60;;;;;;;9.35;100.00;97841.59;5113391;28;20239;-57
2024/01/26 02:24:52;;;;;;;0.90;0.80;;;;;;;9.34;100.00;97838.13;5113694;28;20292;-55
2024/01/26 02:27:19;;;;;;;1.43;0.60;;;;;;;9.34;100.00;97839.91;5113691;28;20215;-54
2024/01/26 02:29:45;;;;;;;2.13;0.83;;;;;;;9.24;100.00;97838.84;5113661;28;20643;-57
2024/01/26 02:32:12;;;;;;;0.63;0.63;;;;;;;9.30;100.00;97833.16;5113171;28;20207;-57
2024/01/26 02:34:39;;;;;;;2.93;0.83;;;;;;;9.27;100.00;97833.34;5113942;28;20221;-56
2024/01/26 02:37:05;;;;;;;1.10;1.00;;;;;;;9.26;100.00;97823.75;5113319;28;20208;-56
2024/01/26 02:39:33;;;;;;;0.83;0.73;;;;;;;9.26;100.00;97826.38;5114511;28;20205;-58
2024/01/26 02:42:01;;;;;;;1.93;0.77;;;;;;;9.27;100.00;97826.28;5116000;28;20274;-57
2024/01/26 02:44:27;;;;;;;0.60;0.57;;;;;;;9.23;100.00;97819.53;5116310;27;20296;-56
2024/01/26 02:46:54;;;;;;;1.27;0.70;;;;;;;9.40;100.00;97826.28;5114110;27;20205;-57
2024/01/26 02:49:21;;;;;;;2.67;0.60;;;;;;;9.64;100.00;97821.91;5113850;28;20197;-57
2024/01/26 02:51:47;;;;;;;0.67;0.53;;;;;;;9.70;100.00;97826.78;5113430;28;20209;-57
2024/01/26 02:54:14;;;;;;;1.37;0.63;;;;;;;9.70;100.00;97805.63;5113683;28;20291;-57
2024/01/26 02:56:40;;;;;;;0.50;0.50;;;;;;;9.89;100.00;97821.84;5113387;28;20205;-57
2024/01/26 02:59:08;;;;;;;0.40;0.40;;;;;;;10.07;100.00;97829.41;5112911;27;20288;-57
2024/01/26 03:01:36;;;;;;;1.03;0.67;;;;;;;10.02;100.00;97825.28;5112715;28;20205;-57
2024/01/26 03:04:03;;;;;;;0.60;0.60;;;;;;;10.02;100.00;97831.53;5113107;28;20227;-57
2024/01/26 03:06:29;;;;;;;0.50;0.50;;;;;;;10.11;100.00;97830.88;5112654;28;20205;-57
2024/01/26 03:08:56;;;;;;;0.37;0.37;;;;;;;10.11;100.00;97828.22;5112935;28;20193;-57
2024/01/26 03:11:23;;;;;;;0.50;0.50;;;;;;;10.10;100.00;97826.53;5113003;28;20318;-58
2024/01/26 03:13:49;;;;;;;0.50;0.50;;;;;;;10.14;100.00;97833.28;5112521;27;20220;-56
2024/01/26 03:16:17;;;;;;;0.80;0.50;;;;;;;10.12;100.00;97832.56;5112592;28;20220;-58
2024/01/26 03:18:44;;;;;;;1.63;0.80;;;;;;;10.14;100.00;97825.34;5112773;28;20201;-57
2024/01/26 03:21:10;;;;;;;2.00;0.60;;;;;;;10.17;100.00;97828.66;5111973;28;20312;-58
2024/01/26 03:23:38;;;;;;;0.50;0.50;;;;;;;10.27;100.00;97826.19;5112529;28;20575;-57
2024/01/26 03:26:04;;;;;;;0.43;0.43;;;;;;;10.26;100.00;97827.16;5112501;28;20283;-57
2024/01/26 03:28:31;;;;;;;1.53;0.60;;;;;;;10.32;100.00;97826.69;5112144;28;20219;-57
2024/01/26 03:30:57;;;;;;;0.60;0.60;;;;;;;10.36;100.00;97838.75;5112295;28;20205;-58
2024/01/26 03:33:25;;;;;;;1.03;0.50;;;;;;;10.34;100.00;97843.31;5112542;28;20193;-57
2024/01/26 03:35:52;;;;;;;0.60;0.60;;;;;;;10.34;100.00;97840.66;5112568;28;20207;-58
2024/01/26 03:38:18;;;;;;;0.40;0.40;;;;;;;10.29;100.00;97840.13;5111900;28;20633;-58
2024/01/26 03:40:45;;;;;;;0.50;0.30;;;;;;;10.32;100.00;97835.47;5112497;28;20630;-58
2024/01/26 03:43:12;;;;;;;1.03;0.83;;;;;;;10.31;100.00;97835.56;5112229;27;20284;-58
2024/01/26 03:45:38;;;;;;;0.53;0.50;;;;;;;10.32;100.00;97830.19;5113788;28;20231;-58
2024/01/26 03:48:05;;;;;;;0.50;0.50;;;;;;;10.35;100.00;97829.09;5112783;28;20391;-58
2024/01/26 03:50:34;;;;;;;0.60;0.50;;;;;;;10.33;100.00;97837.16;5111892;28;20701;-59
2024/01/26 03:53:00;;;;;;;1.27;0.80;;;;;;;10.36;100.00;97838.75;5112238;28;20201;-58
2024/01/26 03:55:27;;;;;;;0.40;0.40;;;;;;;10.34;100.00;97840.66;5112015;28;20205;-58
2024/01/26 03:57:53;;;;;;;0.97;0.67;;;;;;;10.32;100.00;97834.63;5111872;28;20198;-59
2024/01/26 04:00:20;;;;;;;0.50;0.50;;;;;;;10.42;100.00;97838.28;5110631;28;20297;-57
2024/01/26 04:02:47;;;;;;;1.40;0.60;;;;;;;10.35;100.00;97842.31;5111413;28;20257;-58
2024/01/26 04:05:13;;;;;;;0.50;0.50;;;;;;;10.34;100.00;97843.31;5111627;28;20201;-58
2024/01/26 04:07:41;;;;;;;0.53;0.47;;;;;;;10.34;100.00;97846.81;5111217;28;20197;-58
2024/01/26 04:10:09;;;;;;;0.40;0.40;;;;;;;10.35;100.00;97844.97;5112018;28;20209;-57
2024/01/26 04:12:35;;;;;;;2.43;0.70;;;;;;;10.33;100.00;97837.16;5111179;28;21411;-57
2024/01/26 04:15:02;;;;;;;0.70;0.70;;;;;;;10.31;100.00;97839.06;5111356;27;20196;-58
2024/01/26 04:17:28;;;;;;;1.07;0.73;;;;;;;10.33;100.00;97844.25;5110849;28;20216;-58
2024/01/26 04:19:55;;;;;;;1.40;0.67;;;;;;;10.26;100.00;97845.66;5111439;28;20205;-58
2024/01/26 04:22:21;;;;;;;1.07;0.70;;;;;;;10.26;100.00;97843.88;5111467;28;20224;-57
2024/01/26 04:24:49;;;;;;;0.70;0.60;;;;;;;10.24;100.00;97842.25;5111826;28;20197;-58
2024/01/26 04:27:16;;;;;;;1.40;0.70;;;;;;;10.18;100.00;97835.63;5112243;28;20292;-58
2024/01/26 04:29:42;;;;;;;1.23;0.67;;;;;;;10.21;100.00;97853.06;5111828;27;20537;-57
2024/01/26 04:32:09;;;;;;;1.53;0.50;;;;;;;10.20;100.00;97854.03;5110366;28;20201;-58
2024/01/26 04:34:37;;;;;;;1.57;0.60;;;;;;;10.14;100.00;97851.78;5110703;28;20300;-58
2024/01/26 04:37:04;;;;;;;0.60;0.60;;;;;;;10.08;100.00;97852.25;5110937;28;20205;-58
2024/01/26 04:39:31;;;;;;;1.70;0.80;;;;;;;10.02;100.00;97850.91;5113214;28;20524;-58
2024/01/26 04:41:59;;;;;;;0.90;0.60;;;;;;;9.95;100.00;97860.22;5113711;28;20312;-58
2024/01/26 04:44:25;;;;;;;1.37;0.67;;;;;;;9.90;100.00;97863.19;5114441;28;20244;-58
2024/01/26 04:46:54;;;;;;;1.07;0.60;;;;;;;9.81;100.00;97861.16;5112122;28;20303;-58
2024/01/26 04:49:21;;;;;;;1.47;0.70;;;;;;;9.73;100.00;97858.25;5111968;28;20570;-58
2024/01/26 04:51:49;;;;;;;1.03;0.60;;;;;;;9.67;100.00;97858.66;5121420;28;20272;-58
2024/01/26 04:54:15;;;;;;;0.67;0.67;;;;;;;9.64;100.00;97858.03;5126251;28;20197;-58
2024/01/26 04:56:42;;;;;;;3.07;0.70;;;;;;;9.54;100.00;97855.19;5123844;28;20331;-58
2024/01/26 04:59:10;;;;;;;0.60;0.60;;;;;;;9.49;100.00;97865.25;5123095;28;20328;-57
2024/01/26 05:01:37;;;;;;;2.23;1.00;;;;;;;9.47;100.00;97856.56;5111781;28;20300;-58
2024/01/26 05:04:04;;;;;;;4.97;1.13;;;;;;;9.43;100.00;97852.44;5111784;28;20531;-58
2024/01/26 05:06:31;;;;;;;0.70;0.70;;;;;;;9.40;100.00;97860.59;5112027;28;20209;-58
2024/01/26 05:08:57;;;;;;;2.20;0.70;;;;;;;9.36;100.00;97859.09;5111238;28;20296;-57
2024/01/26 05:11:24;;;;;;;0.97;0.77;;;;;;;9.31;100.00;97866.53;5112498;28;20207;-58
2024/01/26 05:13:50;;;;;;;1.07;0.70;;;;;;;9.30;100.00;97854.25;5114986;28;20207;-57
2024/01/26 05:16:18;;;;;;;0.50;0.50;;;;;;;9.32;100.00;97874.31;5115067;27;20197;-58
2024/01/26 05:18:45;;;;;;;1.03;0.70;;;;;;;9.25;100.00;97861.63;5114997;28;20203;-57
2024/01/26 05:21:11;;;;;;;1.47;0.53;;;;;;;9.17;100.00;97875.38;5114569;28;20204;-58
2024/01/26 05:23:38;;;;;;;0.70;0.70;;;;;;;9.16;100.00;97878.13;5114489;28;20219;-57
2024/01/26 05:26:05;;;;;;;0.87;0.80;;;;;;;9.13;100.00;97873.91;5115319;28;20205;-58
2024/01/26 05:28:31;;;;;;;0.73;0.60;;;;;;;9.11;100.00;97869.66;5114723;28;20272;-58
2024/01/26 05:30:58;;;;;;;2.60;0.70;;;;;;;9.05;100.00;97864.78;5114736;27;20213;-57
2024/01/26 05:33:26;;;;;;;0.70;0.70;;;;;;;9.06;100.00;97864.72;5115008;28;20280;-57
2024/01/26 05:35:53;;;;;;;1.43;0.90;;;;;;;9.06;100.00;97867.34;5114674;28;20204;-58
2024/01/26 05:38:19;;;;;;;1.93;1.10;;;;;;;9.09;100.00;97876.84;5114490;28;20193;-56
2024/01/26 05:40:46;;;;;;;1.07;0.80;;;;;;;9.04;100.00;97876.28;5114532;28;20208;-58
2024/01/26 05:43:13;;;;;;;1.83;1.00;;;;;;;9.03;100.00;97882.53;5113713;28;20255;-56
2024/01/26 05:45:39;;;;;;;2.23;0.80;;;;;;;9.06;100.00;97869.13;5114621;27;21190;-58
2024/01/26 05:48:07;;;;;;;1.23;1.03;;;;;;;9.08;100.00;97867.22;5114687;28;20205;-56
2024/01/26 05:50:38;;;;;;;1.37;0.87;;;;;;;9.09;100.00;97869.78;5114576;28;20209;-57
2024/01/26 05:53:04;;;;;;;0.53;0.53;;;;;;;9.11;100.00;97875.78;5114791;28;20197;-57
2024/01/26 05:55:31;;;;;;;2.00;0.83;;;;;;;9.15;100.00;97876.41;5114322;28;20296;-58
2024/01/26 05:57:57;;;;;;;0.73;0.73;;;;;;;9.23;100.00;97874.09;5114420;28;20304;-58
2024/01/26 06:00:24;;;;;;;2.47;2.27;;;;;;;9.26;100.00;97876.53;5113553;28;20239;-57
2024/01/26 06:02:50;;;;;;;10.23;8.87;;;;;;;9.30;100.00;97875.38;5114056;28;20224;-58
2024/01/26 06:05:17;;;;;;;3.87;3.33;;;;;;;9.34;100.00;97867.16;5114081;28;20209;-58
2024/01/26 06:07:45;;;;;;;2.40;1.20;;;;;;;9.38;100.00;97865.16;5112733;28;20198;-58
2024/01/26 06:10:12;;;;;;;1.17;0.90;;;;;;;9.47;100.00;97861.84;5114011;27;20198;-58
2024/01/26 06:12:40;;;;;;;1.50;0.80;;;;;;;9.55;100.00;97862.19;5114156;28;20205;-58
2024/01/26 06:15:08;;;;;;;0.83;0.83;;;;;;;9.57;100.00;97862.91;5114285;28;20285;-59
2024/01/26 06:17:35;;;;;;;1.57;0.67;;;;;;;9.61;100.00;97861.75;5112747;28;20205;-59
2024/01/26 06:20:03;;;;;;;1.23;0.90;;;;;;;9.65;100.00;97860.56;5113431;27;20296;-58
2024/01/26 06:22:29;;;;;;;1.50;0.70;;;;;;;9.65;100.00;97867.66;5112123;28;20228;-60
2024/01/26 06:24:57;;;;;;;2.50;1.00;;;;;;;9.63;100.00;97873.06;5113518;28;20204;-59
2024/01/26 06:27:24;;;;;;;0.90;0.90;;;;;;;9.60;100.00;97872.44;5112781;28;20197;-59
2024/01/26 06:29:50;;;;;;;0.70;0.70;;;;;;;9.59;100.00;97876.84;5114047;28;20533;-60
2024/01/26 06:32:19;;;;;;;0.73;0.73;;;;;;;9.58;100.00;97885.72;5111774;27;20633;-60
2024/01/26 06:34:46;;;;;;;1.30;0.67;;;;;;;9.65;100.00;97881.72;5113166;28;20193;-59
2024/01/26 06:37:13;;;;;;;1.20;0.83;;;;;;;9.67;100.00;97884.25;5113400;28;20254;-59
2024/01/26 06:39:39;;;;;;;0.93;0.90;;;;;;;9.70;100.00;97884.88;5113549;28;20208;-60
2024/01/26 06:42:07;;;;;;;1.90;0.87;;;;;;;9.72;100.00;97882.97;5113214;28;20235;-60
2024/01/26 06:44:34;;;;;;;1.00;0.93;;;;;;;9.71;100.00;97883.91;5112671;27;20648;-59
2024/01/26 06:47:02;;;;;;;0.90;0.80;;;;;;;9.73;100.00;97882.03;5113277;27;20197;-58
2024/01/26 06:49:29;;;;;;;0.80;0.80;;;;;;;9.71;100.00;97880.41;5112843;28;20218;-59
2024/01/26 06:51:55;;;;;;;0.83;0.83;;;;;;;9.74;100.00;97888.97;5112876;28;20201;-58
2024/01/26 06:54:22;;;;;;;1.20;1.10;;;;;;;9.70;100.00;97890.16;5112846;27;20206;-58
2024/01/26 06:56:48;;;;;;;1.43;0.93;;;;;;;9.65;100.00;97891.41;5113725;27;20209;-58
2024/01/26 06:59:16;;;;;;;0.70;0.70;;;;;;;9.63;100.00;97888.91;5116461;27;20332;-57
2024/01/26 07:01:43;;;;;;;2.20;1.03;;;;;;;9.71;100.00;97896.28;5122218;28;20201;-57
2024/01/26 07:04:10;;;;;;;2.83;1.13;;;;;;;9.54;100.00;97889.53;5128176;27;20205;-59
2024/01/26 07:06:36;;;;;;;1.47;1.20;;;;;;;9.51;100.00;97879.19;5127606;28;20265;-59
2024/01/26 07:09:06;;;;;;;1.70;0.93;;;;;;;9.46;100.00;97889.19;5117449;28;20305;-58
2024/01/26 07:11:34;;;;;;;1.03;1.00;;;;;;;9.45;100.00;97871.69;5113953;28;20209;-58
2024/01/26 07:14:01;;;;;;;1.40;1.30;;;;;;;9.36;100.00;97880.22;5112975;27;20197;-59
2024/01/26 07:16:29;;;;;;;3.10;1.20;;;;;;;9.29;100.00;97873.69;5113417;28;20288;-59
2024/01/26 07:18:55;;;;;;;2.67;1.07;;;;;;;9.26;100.00;97860.69;5112635;28;20208;-58
2024/01/26 07:21:22;;;;;;;3.37;1.20;;;;;;;9.28;100.00;97861.47;5113124;28;20208;-58
2024/01/26 07:23:49;;;;;;;1.17;0.93;;;;;;;9.21;100.00;97852.28;5113077;28;20557;-58
2024/01/26 07:26:18;;;;;;;1.23;1.07;;;;;;;9.19;100.00;97847.06;5112568;28;20194;-59
2024/01/26 07:28:45;;;;;;;1.13;0.80;;;;;;;9.13;100.00;97851.94;5113132;28;21340;-59
2024/01/26 07:31:12;;;;;;;5.50;1.20;;;;;;;9.13;100.00;97857.22;5113726;28;20211;-59
2024/01/26 07:33:40;;;;;;;1.87;1.17;;;;;;;9.09;100.00;97851.31;5112546;28;20196;-58
2024/01/26 07:36:07;;;;;;;5.73;2.00;;;;;;;9.11;100.00;97859.09;5112849;28;20638;-58
2024/01/26 07:38:34;;;;;;;5.43;1.63;;;;;;;9.24;100.00;97857.34;5112479;28;20656;-58
2024/01/26 07:41:00;;;;;;;2.10;1.50;;;;;;;9.22;100.00;97852.16;5112645;27;20205;-57
2024/01/26 07:43:27;;;;;;;2.67;1.60;;;;;;;9.26;100.00;97858.06;5112236;28;20217;-58
2024/01/26 07:45:54;;;;;;;3.30;1.57;;;;;;;9.27;100.00;97865.03;5112246;28;20285;-59
2024/01/26 07:48:20;;;;;;;3.60;1.77;;;;;;;9.34;100.00;97861.03;5113334;28;20304;-57
2024/01/26 07:50:48;;;;;;;4.53;1.73;;;;;;;9.38;100.00;97862.50;5112264;28;20229;-57
2024/01/26 07:53:15;;;;;;;3.30;1.27;;;;;;;9.44;100.00;97862.06;5112745;28;20191;-58
2024/01/26 07:55:41;;;;;;;2.93;1.50;;;;;;;9.47;100.00;97862.72;5112629;28;20211;-58
2024/01/26 07:58:08;;;;;;;2.37;1.47;;;;;;;9.52;100.00;97854.47;5112288;27;20246;-59
2024/01/26 08:00:35;;;;;;;9.93;7.13;;;;;;;9.57;100.00;97856.78;5112609;28;20247;-59
2024/01/26 08:03:01;;;;;;;3.60;2.87;;;;;;;9.63;100.00;97864.28;5113224;28;20245;-59
2024/01/26 08:05:28;;;;;;;1.60;1.50;;;;;;;9.64;100.00;97864.16;5111955;28;20599;-57
2024/01/26 08:07:56;;;;;;;2.77;1.60;;;;;;;9.58;100.00;97854.03;5111379;28;20295;-59
2024/01/26 08:10:23;;;;;;;1.00;0.90;;;;;;;9.57;100.00;97854.97;5111613;27;20854;-59
2024/01/26 08:12:51;;;;;;;3.50;1.53;;;;;;;9.59;100.00;97861.00;5111378;28;20197;-58
2024/01/26 08:15:18;;;;;;;1.90;1.23;;;;;;;9.61;100.00;97858.25;5112563;28;20238;-57
2024/01/26 08:17:45;;;;;;;2.70;1.10;;;;;;;9.64;100.00;97858.88;5113122;27;20590;-59
2024/01/26 08:20:13;;;;;;;1.53;1.20;;;;;;;9.63;100.00;97861.66;5113280;28;20215;-58
2024/01/26 08:22:40;;;;;;;1.70;1.27;;;;;;;9.71;100.00;97864.56;5111784;28;20503;-59
2024/01/26 08:25:09;;;;;;;2.10;1.10;;;;;;;9.78;100.00;97860.53;5112079;27;20622;-60
2024/01/26 08:27:36;;;;;;;1.10;1.00;;;;;;;9.89;100.00;97850.91;5111754;28;20297;-57
2024/01/26 08:30:03;;;;;;;2.50;2.03;;;;;;;9.97;100.00;97856.50;5111388;27;20206;-58
2024/01/26 08:32:30;;;;;;;7.17;5.70;;;;;;;10.11;100.00;97852.00;5111834;28;20626;-58
2024/01/26 08:34:56;;;;;;;6.57;3.40;;;;;;;10.19;100.00;97855.84;5112030;27;20201;-57
2024/01/26 08:37:23;;;;;;;2.10;1.90;;;;;;;10.34;100.00;97848.59;5111733;28;20291;-59
2024/01/26 08:39:50;;;;;;;1.50;1.40;;;;;;;10.47;100.00;97854.66;5111625;28;20236;-59
2024/01/26 08:42:18;;;;;;;2.70;1.30;;;;;;;10.62;100.00;97853.53;5111736;28;20197;-59
2024/01/26 08:44:44;;;;;;;1.80;1.20;;;;;;;10.80;100.00;97852.19;5111203;28;20211;-59
2024/01/26 08:47:11;;;;;;;0.97;0.97;;;;;;;11.01;100.00;97854.16;5111786;28;20201;-59
2024/01/26 08:49:37;;;;;;;2.50;0.83;;;;;;;11.18;100.00;97861.66;5112275;28;20220;-58
2024/01/26 08:52:05;;;;;;;1.30;1.20;;;;;;;11.36;100.00;97855.78;5112372;28;20652;-58
2024/01/26 08:54:32;;;;;;;1.83;1.50;;;;;;;11.40;99.65;97865.19;5123791;28;20189;-58
2024/01/26 08:56:58;;;;;;;2.60;1.50;;;;;;;11.40;100.00;97859.06;5124330;28;20197;-60
2024/01/26 08:59:26;;;;;;;1.60;1.47;;;;;;;11.57;99.82;97861.22;5124475;28;20289;-59
2024/01/26 09:01:53;;;;;;;0.90;0.90;;;;;;;11.59;95.98;97851.34;5123852;28;20889;-59
2024/01/26 09:04:19;;;;;;;1.17;0.97;;;;;;;11.54;96.06;97850.88;5123987;28;20296;-59
2024/01/26 09:06:46;;;;;;;1.73;1.50;;;;;;;11.59;98.49;97856.66;5123583;28;20201;-59
2024/01/26 09:09:13;;;;;;;1.10;1.10;;;;;;;11.68;98.78;97863.03;5123896;28;20229;-59
2024/01/26 09:11:40;;;;;;;1.10;1.00;;;;;;;11.65;98.47;97861.50;5124275;28;20209;-58
2024/01/26 09:14:07;;;;;;;1.47;0.90;;;;;;;11.66;96.67;97859.66;5123319;28;20221;-59
2024/01/26 09:16:36;;;;;;;2.27;1.17;;;;;;;11.63;99.23;97852.78;5124865;28;20212;-58
2024/01/26 09:19:03;;;;;;;4.37;1.27;;;;;;;11.64;100.00;97862.44;5118354;28;20196;-59
2024/01/26 09:21:29;;;;;;;1.50;1.40;;;;;;;11.76;96.85;97864.13;5116348;28;20223;-60
2024/01/26 09:23:56;;;;;;;1.20;1.00;;;;;;;11.80;98.45;97860.28;5120598;28;20287;-59
2024/01/26 09:26:23;;;;;;;2.40;1.13;;;;;;;11.94;97.69;97862.69;5124343;28;20225;-59
2024/01/26 09:28:50;;;;;;;1.40;1.30;;;;;;;11.98;95.44;97858.00;5123474;28;20252;-58
2024/01/26 09:31:16;;;;;;;1.73;1.10;;;;;;;12.06;99.99;97855.59;5123399;28;20232;-58
2024/01/26 09:33:44;;;;;;;1.63;1.30;;;;;;;12.05;99.10;97863.66;5112778;28;20196;-59
2024/01/26 09:36:11;;;;;;;2.08;0.93;;;;;;;12.07;94.51;97857.28;5111952;28;20354;-59
2024/01/26 09:38:37;;;;;;;1.00;1.00;;;;;;;12.22;96.22;97863.16;5110773;28;20292;-58
2024/01/26 09:41:04;;;;;;;0.98;0.98;;;;;;;12.32;95.34;97861.44;5112065;28;20280;-59
2024/01/26 09:43:31;;;;;;;0.80;0.80;;;;;;;12.45;92.57;97867.44;5110766;28;20239;-58
2024/01/26 09:45:57;;;;;;;1.37;1.00;;;;;;;12.39;91.01;97862.63;5111018;28;20634;-59
2024/01/26 09:48:24;;;;;;;1.30;1.20;;;;;;;12.41;93.74;97855.38;5110807;28;20537;-59
2024/01/26 09:50:53;;;;;;;1.83;0.90;;;;;;;12.44;91.42;97855.97;5111675;28;20542;-59
2024/01/26 09:53:18;;;;;;;1.90;1.80;;;;;;;12.39;90.71;97852.03;5112680;28;20277;-58
2024/01/26 09:55:46;;;;;;;1.60;1.05;;;;;;;12.46;91.57;97848.75;5111692;28;20300;-59
2024/01/26 09:58:13;;;;;;;2.38;1.05;;;;;;;12.47;91.70;97846.91;5114669;28;20276;-59
2024/01/26 10:00:39;;;;;;;1.90;1.17;;;;;;;12.44;91.29;97842.72;5115312;28;20247;-58
2024/01/26 10:03:06;;;;;;;1.38;0.90;;;;;;;12.42;92.42;97842.00;5115811;27;20316;-59
2024/01/26 10:05:32;;;;;;;2.97;1.30;;;;;;;12.41;92.56;97844.78;5116890;27;20963;-59
2024/01/26 10:08:00;;;;;;;2.10;1.30;;;;;;;12.37;93.37;97838.03;5118592;27;20209;-58
2024/01/26 10:10:27;;;;;;;2.10;1.33;;;;;;;12.34;96.41;97836.47;5115982;27;20205;-58
2024/01/26 10:12:53;;;;;;;1.30;1.20;;;;;;;12.43;94.59;97837.56;5114268;27;20201;-58
2024/01/26 10:15:20;;;;;;;1.07;0.97;;;;;;;12.42;92.45;97834.06;5114850;28;20193;-60
2024/01/26 10:17:53;;;;;;;1.67;1.57;;;;;;;12.52;89.00;97835.94;5116793;28;20296;-59
2024/01/26 10:20:20;;;;;;;1.60;1.45;;;;;;;12.53;88.43;97838.47;5117773;28;20201;-59
2024/01/26 10:22:47;;;;;;;1.52;1.27;;;;;;;12.48;91.57;97835.34;5114047;28;20286;-58
2024/01/26 10:25:15;;;;;;;2.20;1.27;;;;;;;12.45;90.75;97835.59;5113547;27;20280;-58
2024/01/26 10:27:42;;;;;;;1.15;1.10;;;;;;;12.46;90.06;97831.97;5113615;28;20596;-59
2024/01/26 10:30:11;;;;;;;1.30;1.20;;;;;;;12.53;91.60;97837.63;5113628;28;20677;-59
2024/01/26 10:32:38;;;;;;;1.15;1.05;;;;;;;12.56;89.88;97838.22;5113346;27;20216;-58
2024/01/26 10:35:07;;;;;;;2.40;1.50;;;;;;;12.57;93.01;97831.94;5113478;28;20212;-59
2024/01/26 10:37:34;;;;;;;1.00;1.00;;;;;;;12.72;94.48;97829.81;5113879;28;20209;-59
2024/01/26 10:40:04;;;;;;;1.27;1.17;;;;;;;12.76;92.53;97824.13;5113625;28;20252;-59
2024/01/26 10:42:32;;;;;;;1.70;1.00;;;;;;;12.85;89.38;97823.38;5114185;27;20204;-59
2024/01/26 10:45:01;;;;;;;1.50;1.40;;;;;;;12.84;89.94;97811.06;5112570;27;20720;-60
2024/01/26 10:47:28;;;;;;;2.40;1.58;;;;;;;12.82;89.61;97810.34;5111663;28;20831;-59
2024/01/26 10:49:55;;;;;;;2.50;1.52;;;;;;;12.76;89.66;97810.00;5113265;28;20239;-59
2024/01/26 10:52:22;;;;;;;1.40;1.25;;;;;;;12.75;88.50;97809.16;5112776;28;20661;-59
2024/01/26 10:54:50;;;;;;;1.30;1.20;;;;;;;12.65;90.66;97804.75;5112860;28;20208;-59
2024/01/26 10:57:19;;;;;;;1.52;1.42;;;;;;;12.65;87.66;97796.78;5112868;28;20211;-58
2024/01/26 10:59:47;;;;;;;1.02;1.02;;;;;;;12.57;90.77;97802.75;5113038;28;20236;-59
2024/01/26 11:02:16;;;;;;;1.48;1.38;;;;;;;12.58;90.49;97801.78;5112779;28;20208;-60
2024/01/26 11:04:44;;;;;;;1.95;1.52;;;;;;;12.54;92.76;97795.03;5113171;28;20220;-60
2024/01/26 11:07:11;;;;;;;1.75;1.40;;;;;;;12.51;91.42;97791.78;5114016;28;20193;-59
2024/01/26 11:09:39;;;;;;;1.83;1.40;;;;;;;12.49;92.58;97783.97;5113773;28;20197;-59
2024/01/26 11:12:08;;;;;;;2.60;1.30;;;;;;;12.47;91.58;97772.63;5115149;28;20193;-60
2024/01/26 11:14:35;;;;;;;1.25;1.23;;;;;;;12.44;91.17;97779.03;5115908;28;20201;-60
2024/01/26 11:17:10;;;;;;;0.90;0.90;;;;;;;12.43;93.03;97773.88;5113266;28;20205;-60
2024/01/26 11:19:37;;;;;;;1.42;0.80;;;;;;;12.41;96.47;97771.34;5114082;28;20197;-59
2024/01/26 11:22:05;;;;;;;1.05;1.00;;;;;;;12.35;92.99;97768.34;5113597;28;20507;-59
2024/01/26 11:24:32;;;;;;;1.70;1.08;;;;;;;12.35;92.82;97757.75;5113925;28;20229;-60
2024/01/26 11:27:01;;;;;;;1.40;1.30;;;;;;;12.36;93.02;97764.75;5112854;28;20208;-60
2024/01/26 11:29:31;;;;;;;1.48;1.38;;;;;;;12.40;93.96;97763.50;5113244;28;20208;-60